Time;durP1;ratioP1;P1;durP2;ratioP2;P2;SDS_P1;SDS_P2;PMS_P1;PMS_P2;Temp;Humidity;BMP_temperature;BMP_pressure;BME280_temperature;BME280_humidity;BME280_pressure;Samples;Min_cycle;Max_cycle;Signal;HPM_P1;HPM_P2
2021/05/16 00:02:12;;;;;;;50.70;6.90;;;;;;;11.64;100.00;100220.25;5070801;28;20033;-62
2021/05/16 00:04:38;;;;;;;40.53;6.07;;;;;;;11.61;100.00;100209.81;5070687;28;20036;-62
2021/05/16 00:07:03;;;;;;;49.55;6.28;;;;;;;11.62;100.00;100227.88;5070628;28;20048;-63
2021/05/16 00:09:29;;;;;;;38.00;6.45;;;;;;;11.62;100.00;100211.47;5070793;28;20062;-63
2021/05/16 00:11:56;;;;;;;48.95;6.70;;;;;;;11.62;100.00;100200.53;5070867;28;20047;-63
2021/05/16 00:14:22;;;;;;;46.72;6.30;;;;;;;11.61;100.00;100190.66;5070767;28;20044;-61
2021/05/16 00:16:48;;;;;;;49.78;6.97;;;;;;;11.61;100.00;100198.88;5070621;28;20128;-62
2021/05/16 00:19:14;;;;;;;42.50;6.18;;;;;;;11.60;100.00;100194.50;5070688;28;20037;-63
2021/05/16 00:21:40;;;;;;;41.97;6.40;;;;;;;11.59;100.00;100192.84;5070534;28;20044;-63
2021/05/16 00:24:06;;;;;;;42.20;5.47;;;;;;;11.57;100.00;100192.28;5070641;28;20105;-62
2021/05/16 00:26:31;;;;;;;41.33;6.50;;;;;;;11.56;100.00;100190.66;5071110;28;20151;-62
2021/05/16 00:28:57;;;;;;;43.95;6.20;;;;;;;11.56;100.00;100189.81;5071013;28;20043;-63
2021/05/16 00:31:23;;;;;;;45.00;6.38;;;;;;;11.55;100.00;100194.47;5070760;28;20048;-63
2021/05/16 00:33:49;;;;;;;44.97;5.80;;;;;;;11.54;100.00;100192.00;5070446;28;20048;-64
2021/05/16 00:36:14;;;;;;;39.92;5.85;;;;;;;11.55;100.00;100189.00;5070448;28;20487;-62
2021/05/16 00:38:40;;;;;;;39.10;5.93;;;;;;;11.57;100.00;100186.00;5071006;28;20036;-62
2021/05/16 00:41:06;;;;;;;40.83;5.57;;;;;;;11.58;100.00;100180.25;5070322;28;20032;-62
2021/05/16 00:43:31;;;;;;;44.88;5.53;;;;;;;11.59;100.00;100184.63;5070650;28;20047;-64
2021/05/16 00:45:57;;;;;;;42.40;6.10;;;;;;;11.60;100.00;100178.09;5070595;28;20487;-63
2021/05/16 00:48:23;;;;;;;41.15;5.78;;;;;;;11.60;100.00;100172.63;5070512;28;20047;-62
2021/05/16 00:50:49;;;;;;;48.65;6.22;;;;;;;11.60;100.00;100171.78;5070399;28;20033;-62
2021/05/16 00:53:21;;;;;;;46.75;6.30;;;;;;;11.60;100.00;100169.88;5069057;28;20037;-61
2021/05/16 00:55:47;;;;;;;37.03;4.95;;;;;;;11.58;100.00;100166.59;5070982;28;20119;-64
2021/05/16 00:58:13;;;;;;;34.83;5.55;;;;;;;11.60;100.00;100166.31;5074240;28;20094;-63
2021/05/16 01:00:40;;;;;;;45.85;5.10;;;;;;;11.58;100.00;100166.59;5074338;28;20040;-62
2021/05/16 01:03:07;;;;;;;47.60;5.30;;;;;;;11.59;100.00;100162.75;5074247;28;20402;-63
2021/05/16 01:05:33;;;;;;;44.67;5.47;;;;;;;11.59;100.00;100156.47;5073868;28;20580;-62
2021/05/16 01:08:00;;;;;;;43.35;6.03;;;;;;;11.60;100.00;100169.06;5073999;28;20036;-62
2021/05/16 01:10:25;;;;;;;41.45;5.68;;;;;;;11.60;100.00;100153.47;5073916;28;20516;-62
2021/05/16 01:12:54;;;;;;;39.25;6.13;;;;;;;11.62;100.00;100162.22;5073825;28;20039;-64
2021/05/16 01:15:23;;;;;;;41.47;5.95;;;;;;;11.62;100.00;100156.75;5074140;28;20557;-61
2021/05/16 01:17:51;;;;;;;48.85;6.15;;;;;;;11.63;100.00;100158.44;5073959;28;20451;-63
2021/05/16 01:20:31;;;;;;;52.45;6.10;;;;;;;11.64;100.00;100149.13;5073712;28;20045;-64
2021/05/16 01:22:58;;;;;;;47.38;5.88;;;;;;;11.65;100.00;100147.22;5072508;28;20044;-63
2021/05/16 01:25:26;;;;;;;47.63;6.55;;;;;;;11.65;100.00;100156.25;5073690;28;20047;-64
2021/05/16 01:27:52;;;;;;;33.60;4.65;;;;;;;11.51;100.00;100144.13;5073674;28;20063;-62
2021/05/16 01:30:21;;;;;;;16.83;3.13;;;;;;;11.34;100.00;100127.09;5073566;28;20127;-62
2021/05/16 01:32:47;;;;;;;21.60;3.22;;;;;;;11.31;100.00;100135.81;5073929;28;20033;-63
2021/05/16 01:35:14;;;;;;;18.10;2.53;;;;;;;11.24;100.00;100121.56;5073536;28;20057;-62
2021/05/16 01:37:40;;;;;;;21.00;2.55;;;;;;;11.13;100.00;100110.56;5073567;28;20040;-63
2021/05/16 01:40:07;;;;;;;16.40;2.72;;;;;;;11.11;100.00;100115.47;5072364;28;20445;-61
2021/05/16 01:42:33;;;;;;;22.58;2.80;;;;;;;11.11;100.00;100115.47;5073489;28;20090;-63
2021/05/16 01:45:05;;;;;;;14.50;2.42;;;;;;;11.09;100.00;100114.06;5073268;28;20045;-62
2021/05/16 01:47:31;;;;;;;18.85;2.45;;;;;;;11.08;100.00;100106.97;5073346;28;20499;-62
2021/05/16 01:50:13;;;;;;;33.38;4.57;;;;;;;11.17;100.00;100111.69;5073183;28;20079;-62
2021/05/16 01:52:44;;;;;;;41.28;6.43;;;;;;;11.33;100.00;100111.78;5073240;28;20505;-62
2021/05/16 01:55:11;;;;;;;41.58;6.13;;;;;;;11.45;100.00;100109.63;5073426;28;20395;-63
2021/05/16 01:57:38;;;;;;;44.25;7.72;;;;;;;11.54;100.00;100108.03;5073273;28;20064;-62
2021/05/16 02:00:15;;;;;;;47.33;7.10;;;;;;;11.61;100.00;100113.25;5073112;28;20051;-62
2021/05/16 02:02:41;;;;;;;49.05;6.53;;;;;;;11.64;100.00;100112.75;5072915;28;20045;-63
2021/05/16 02:05:09;;;;;;;55.33;7.05;;;;;;;11.66;100.00;100108.66;5072629;28;20059;-61
2021/05/16 02:07:35;;;;;;;42.15;6.25;;;;;;;11.68;100.00;100101.00;5072035;28;20047;-63
2021/05/16 02:10:02;;;;;;;50.38;6.47;;;;;;;11.67;100.00;100102.09;5072889;28;20526;-62
2021/05/16 02:12:28;;;;;;;61.03;8.63;;;;;;;11.70;100.00;100106.22;5072923;28;20143;-62
2021/05/16 02:14:53;;;;;;;48.28;7.20;;;;;;;11.68;100.00;100095.53;5072709;28;20040;-63
2021/05/16 02:17:19;;;;;;;50.83;7.88;;;;;;;11.69;100.00;100104.56;5072815;28;20510;-62
2021/05/16 02:19:45;;;;;;;50.75;8.18;;;;;;;11.67;100.00;100096.63;5072867;28;20037;-63
2021/05/16 02:22:13;;;;;;;44.47;6.55;;;;;;;11.66;100.00;100091.44;5072581;28;20558;-63
2021/05/16 02:24:39;;;;;;;52.67;7.55;;;;;;;11.63;100.00;100092.78;5072493;28;20461;-62
2021/05/16 02:27:05;;;;;;;63.92;7.13;;;;;;;11.62;100.00;100091.13;5071158;28;20044;-62
2021/05/16 02:29:31;;;;;;;46.95;7.18;;;;;;;11.59;100.00;100080.72;5073110;28;20048;-62
2021/05/16 02:31:57;;;;;;;61.38;7.40;;;;;;;11.59;100.00;100090.84;5072556;28;20429;-62
2021/05/16 02:34:24;;;;;;;40.72;6.28;;;;;;;11.56;100.00;100084.00;5072360;28;20116;-62
2021/05/16 02:36:50;;;;;;;55.65;8.05;;;;;;;11.55;100.00;100090.53;5072273;28;20120;-62
2021/05/16 02:39:16;;;;;;;50.22;6.28;;;;;;;11.54;100.00;100088.91;5072321;28;20035;-64
2021/05/16 02:41:42;;;;;;;59.03;7.28;;;;;;;11.53;100.00;100075.50;5072171;28;20032;-63
2021/05/16 02:44:08;;;;;;;55.42;7.55;;;;;;;11.50;100.00;100076.88;5070824;28;20036;-63
2021/05/16 02:46:37;;;;;;;46.20;6.05;;;;;;;11.49;100.00;100075.22;5072344;28;20516;-61
2021/05/16 02:49:02;;;;;;;48.72;6.63;;;;;;;11.48;100.00;100068.09;5072240;28;20028;-62
2021/05/16 02:51:28;;;;;;;56.33;6.70;;;;;;;11.47;100.00;100080.97;5072086;28;20474;-63
2021/05/16 02:53:54;;;;;;;40.50;6.40;;;;;;;11.47;100.00;100066.47;5071969;28;20471;-63
2021/05/16 02:56:19;;;;;;;47.03;6.82;;;;;;;11.47;100.00;100056.34;5071874;28;20064;-63
2021/05/16 02:58:46;;;;;;;50.50;6.93;;;;;;;11.47;100.00;100072.75;5071885;28;20043;-62
2021/05/16 03:01:11;;;;;;;54.08;6.63;;;;;;;11.45;100.00;100071.34;5071717;28;20045;-65
2021/05/16 03:03:39;;;;;;;43.22;6.45;;;;;;;11.46;100.00;100064.81;5070543;28;20040;-63
2021/05/16 03:06:05;;;;;;;47.25;6.88;;;;;;;11.45;100.00;100069.47;5071663;28;20075;-62
2021/05/16 03:08:31;;;;;;;55.53;7.40;;;;;;;11.46;100.00;100064.81;5071915;28;20047;-63
2021/05/16 03:10:57;;;;;;;41.22;6.32;;;;;;;11.46;100.00;100064.81;5071589;28;20032;-62
2021/05/16 03:13:23;;;;;;;54.92;7.82;;;;;;;11.46;100.00;100054.69;5071606;28;20068;-63
2021/05/16 03:15:48;;;;;;;52.58;8.25;;;;;;;11.47;100.00;100061.00;5071494;28;20085;-64
2021/05/16 03:18:14;;;;;;;41.58;5.65;;;;;;;11.48;100.00;100054.44;5071620;28;20032;-64
2021/05/16 03:20:40;;;;;;;41.05;5.20;;;;;;;11.48;100.00;100057.16;5071417;28;20124;-63
2021/05/16 03:23:06;;;;;;;56.17;7.47;;;;;;;11.49;100.00;100053.34;5071466;28;20115;-62
2021/05/16 03:25:35;;;;;;;42.70;5.60;;;;;;;11.50;100.00;100044.06;5071495;28;20128;-62
2021/05/16 03:28:02;;;;;;;39.15;6.65;;;;;;;11.52;100.00;100050.06;5071453;28;20036;-62
2021/05/16 03:30:28;;;;;;;47.05;6.85;;;;;;;11.55;100.00;100052.25;5071296;28;20502;-64
2021/05/16 03:32:53;;;;;;;52.50;7.20;;;;;;;11.56;100.00;100048.44;5071266;28;20132;-63
2021/05/16 03:35:19;;;;;;;52.83;6.57;;;;;;;11.58;100.00;100046.25;5071229;28;20470;-62
2021/05/16 03:37:45;;;;;;;44.17;7.85;;;;;;;11.60;100.00;100038.59;5071330;28;20055;-64
2021/05/16 03:40:11;;;;;;;46.65;6.82;;;;;;;11.61;100.00;100040.25;5071190;28;20047;-63
2021/05/16 03:42:37;;;;;;;48.03;6.78;;;;;;;11.63;100.00;100042.72;5071104;28;20037;-62
2021/05/16 03:45:05;;;;;;;49.88;6.47;;;;;;;11.64;100.00;100033.44;5071078;28;20086;-63
2021/05/16 03:47:31;;;;;;;57.08;7.63;;;;;;;11.64;100.00;100023.31;5071356;28;20056;-64
2021/05/16 03:49:57;;;;;;;51.92;7.45;;;;;;;11.66;100.00;100034.81;5071126;28;20494;-63
2021/05/16 03:52:22;;;;;;;57.55;7.45;;;;;;;11.66;100.00;100026.59;5071117;28;20414;-63
2021/05/16 03:54:49;;;;;;;49.22;6.40;;;;;;;11.66;100.00;100021.13;5052932;28;20043;-62
2021/05/16 03:57:16;;;;;;;47.42;6.43;;;;;;;11.66;100.00;100014.84;5071328;28;20032;-63
2021/05/16 03:59:42;;;;;;;53.40;7.68;;;;;;;11.68;100.00;100016.22;5071512;28;20111;-64
2021/05/16 04:02:09;;;;;;;52.83;7.82;;;;;;;11.69;100.00;100020.59;5071161;28;20036;-63
2021/05/16 04:04:35;;;;;;;56.95;8.52;;;;;;;11.69;100.00;100012.38;5071051;28;20111;-64
2021/05/16 04:07:00;;;;;;;45.13;6.80;;;;;;;11.67;100.00;100009.09;5071028;28;20063;-63
2021/05/16 04:09:26;;;;;;;46.72;6.30;;;;;;;11.68;100.00;100018.94;5071091;28;20040;-62
2021/05/16 04:11:52;;;;;;;60.60;7.80;;;;;;;11.68;100.00;100016.22;5071029;28;20040;-64
2021/05/16 04:14:18;;;;;;;58.20;7.53;;;;;;;11.67;100.00;100017.31;5071098;28;20542;-63
2021/05/16 04:16:44;;;;;;;38.25;6.40;;;;;;;11.62;100.00;100011.78;5070819;28;20040;-63
2021/05/16 04:19:10;;;;;;;44.45;6.85;;;;;;;11.58;100.00;100018.91;5070980;28;20097;-61
2021/05/16 04:21:36;;;;;;;46.17;6.15;;;;;;;11.58;100.00;100002.50;5070713;28;20498;-62
2021/05/16 04:24:01;;;;;;;45.33;5.72;;;;;;;11.56;100.00;100015.63;5069410;28;20444;-62
2021/05/16 04:26:27;;;;;;;45.20;6.68;;;;;;;11.51;100.00;100012.88;5070606;28;20094;-65
2021/05/16 04:28:53;;;;;;;33.10;5.13;;;;;;;11.47;100.00;100011.78;5070830;28;20089;-63
2021/05/16 04:31:18;;;;;;;41.88;5.38;;;;;;;11.38;100.00;100002.44;5072361;28;20048;-62
2021/05/16 04:33:44;;;;;;;33.05;4.72;;;;;;;11.33;100.00;100013.34;5074707;28;20036;-63
2021/05/16 04:36:09;;;;;;;21.58;3.33;;;;;;;11.23;100.00;100000.47;5074780;28;20403;-63
2021/05/16 04:38:35;;;;;;;16.25;2.38;;;;;;;11.18;100.00;99992.25;5074668;28;20078;-62
2021/05/16 04:41:01;;;;;;;19.75;2.80;;;;;;;11.16;100.00;100000.72;5074497;28;20036;-61
2021/05/16 04:43:26;;;;;;;20.00;2.95;;;;;;;11.15;100.00;99999.06;5074458;28;20048;-62
2021/05/16 04:45:52;;;;;;;18.75;3.33;;;;;;;11.17;100.00;99996.06;5074414;28;20040;-63
2021/05/16 04:48:18;;;;;;;18.88;2.95;;;;;;;11.16;100.00;100003.44;5074661;28;20498;-63
2021/05/16 04:50:43;;;;;;;20.70;2.58;;;;;;;11.18;100.00;99998.53;5073027;28;20044;-61
2021/05/16 04:53:09;;;;;;;32.50;5.57;;;;;;;11.21;100.00;100001.81;5074390;28;20043;-63
2021/05/16 04:55:34;;;;;;;24.17;3.28;;;;;;;11.23;100.00;99995.00;5074333;28;20089;-61
2021/05/16 04:58:00;;;;;;;30.95;4.13;;;;;;;11.25;100.00;100002.91;5074350;28;20040;-62
2021/05/16 05:00:26;;;;;;;29.77;4.55;;;;;;;11.27;100.00;100000.75;5074235;28;20037;-64
2021/05/16 05:02:52;;;;;;;28.80;4.13;;;;;;;11.30;100.00;100005.69;5074075;28;20028;-63
2021/05/16 05:05:18;;;;;;;28.60;4.35;;;;;;;11.32;100.00;100004.34;5074009;28;20052;-61
2021/05/16 05:07:43;;;;;;;44.05;4.63;;;;;;;11.36;100.00;100001.88;5074139;28;20036;-61
2021/05/16 05:10:10;;;;;;;38.95;5.80;;;;;;;11.40;100.00;99998.34;5074120;28;20036;-62
2021/05/16 05:12:35;;;;;;;29.33;5.53;;;;;;;11.42;100.00;99992.59;5073992;28;20029;-62
2021/05/16 05:15:02;;;;;;;34.05;4.47;;;;;;;11.45;100.00;99997.53;5073839;28;20098;-63
2021/05/16 05:17:27;;;;;;;29.30;4.50;;;;;;;11.48;100.00;99994.28;5073776;28;20123;-62
2021/05/16 05:19:53;;;;;;;40.28;5.60;;;;;;;11.50;100.00;99994.81;5073808;28;20127;-64
2021/05/16 05:22:18;;;;;;;33.78;4.75;;;;;;;11.54;100.00;100001.41;5073737;28;20501;-63
2021/05/16 05:24:44;;;;;;;39.40;5.18;;;;;;;11.56;100.00;99992.91;5073773;28;20484;-62
2021/05/16 05:27:09;;;;;;;44.58;6.45;;;;;;;11.56;100.00;99996.47;5073842;28;20040;-63
2021/05/16 05:29:35;;;;;;;32.15;5.28;;;;;;;11.56;100.00;99993.75;5073736;28;20087;-63
2021/05/16 05:32:01;;;;;;;40.88;6.28;;;;;;;11.55;100.00;99992.09;5073652;28;20376;-62
2021/05/16 05:34:27;;;;;;;45.60;4.65;;;;;;;11.53;100.00;99997.03;5073486;28;20033;-61
2021/05/16 05:36:53;;;;;;;32.42;5.05;;;;;;;11.54;100.00;100000.56;5073495;28;20044;-63
2021/05/16 05:39:19;;;;;;;37.33;5.60;;;;;;;11.51;100.00;99991.00;5073545;28;20041;-63
2021/05/16 05:41:45;;;;;;;36.03;4.88;;;;;;;11.56;100.00;99981.97;5072926;28;20510;-61
2021/05/16 05:44:15;;;;;;;32.70;4.72;;;;;;;11.58;100.00;99985.25;5072784;28;20063;-65
2021/05/16 05:46:41;;;;;;;41.60;5.85;;;;;;;11.63;100.00;99991.59;5073416;28;20492;-62
2021/05/16 05:49:07;;;;;;;34.97;4.85;;;;;;;11.67;100.00;99995.41;5073304;28;20510;-62
2021/05/16 05:51:33;;;;;;;30.23;4.43;;;;;;;11.66;100.00;99982.84;5073133;28;20473;-62
2021/05/16 05:53:59;;;;;;;36.90;4.47;;;;;;;11.73;100.00;99988.84;5073162;28;20119;-62
2021/05/16 05:56:24;;;;;;;29.65;3.80;;;;;;;11.83;100.00;99988.09;5073112;28;20044;-62
2021/05/16 05:58:51;;;;;;;23.00;3.00;;;;;;;11.88;100.00;99984.53;5073274;28;20170;-62
2021/05/16 06:01:17;;;;;;;23.33;3.15;;;;;;;11.90;100.00;99987.81;5073056;28;20512;-65
2021/05/16 06:03:44;;;;;;;33.70;4.13;;;;;;;11.81;100.00;99984.81;5073156;28;20048;-62
2021/05/16 06:06:10;;;;;;;28.65;3.78;;;;;;;11.69;100.00;99993.22;5071324;28;20048;-63
2021/05/16 06:08:36;;;;;;;28.00;3.75;;;;;;;11.60;100.00;99994.00;5072917;28;20043;-61
2021/05/16 06:11:02;;;;;;;34.20;3.80;;;;;;;11.46;100.00;99999.19;5073016;28;20036;-63
2021/05/16 06:13:27;;;;;;;30.85;3.30;;;;;;;11.32;100.00;100003.50;5073210;28;20046;-62
2021/05/16 06:15:53;;;;;;;26.70;3.45;;;;;;;11.21;100.00;100010.03;5072856;28;20410;-62
2021/05/16 06:18:18;;;;;;;26.45;3.33;;;;;;;11.06;100.00;100002.56;5072868;28;20078;-65
2021/05/16 06:20:44;;;;;;;32.75;4.78;;;;;;;10.99;100.00;100000.09;5072726;28;20043;-63
2021/05/16 06:23:13;;;;;;;27.05;3.17;;;;;;;10.92;100.00;99999.47;5072602;28;20045;-62
2021/05/16 06:25:38;;;;;;;21.63;2.63;;;;;;;10.88;100.00;99990.19;5072537;28;20062;-62
2021/05/16 06:28:04;;;;;;;18.98;1.98;;;;;;;10.82;100.00;99988.53;5072625;28;20444;-64
2021/05/16 06:30:30;;;;;;;17.92;2.22;;;;;;;10.76;100.00;99978.63;5072512;28;20055;-64
2021/05/16 06:32:56;;;;;;;13.38;1.30;;;;;;;10.71;100.00;99973.16;5072907;28;20111;-62
2021/05/16 06:35:22;;;;;;;17.15;1.95;;;;;;;10.69;100.00;99978.06;5072436;28;20403;-62
2021/05/16 06:37:48;;;;;;;15.50;2.17;;;;;;;10.65;100.00;99971.47;5072473;28;20036;-62
2021/05/16 06:40:14;;;;;;;20.23;1.98;;;;;;;10.61;100.00;99970.38;5072356;28;20119;-62
2021/05/16 06:42:41;;;;;;;20.60;2.22;;;;;;;10.57;100.00;99970.88;5070855;28;20045;-63
2021/05/16 06:45:08;;;;;;;14.55;2.00;;;;;;;10.55;100.00;99951.22;5072149;28;20115;-63
2021/05/16 06:47:34;;;;;;;12.02;1.70;;;;;;;10.53;100.00;99947.91;5072144;28;20032;-63
2021/05/16 06:50:00;;;;;;;9.23;1.73;;;;;;;10.53;100.00;99936.19;5072074;28;20086;-62
2021/05/16 06:52:25;;;;;;;11.05;1.30;;;;;;;10.52;100.00;99929.91;5072178;28;20488;-63
2021/05/16 06:54:51;;;;;;;12.63;2.13;;;;;;;10.52;100.00;99929.09;5071650;28;20032;-65
2021/05/16 06:57:17;;;;;;;11.40;1.13;;;;;;;10.54;100.00;99938.66;5072013;28;20127;-64
2021/05/16 06:59:43;;;;;;;11.02;1.58;;;;;;;10.58;100.00;99942.47;5071918;28;20123;-62
2021/05/16 07:02:09;;;;;;;9.95;1.42;;;;;;;10.63;100.00;99940.91;5071825;28;20127;-65
2021/05/16 07:04:34;;;;;;;12.13;1.20;;;;;;;10.67;100.00;99928.34;5071774;28;20041;-62
2021/05/16 07:07:00;;;;;;;9.65;1.63;;;;;;;10.75;100.00;99933.28;5071697;28;20045;-64
2021/05/16 07:09:26;;;;;;;11.43;1.85;;;;;;;10.80;100.00;99936.06;5071878;28;20479;-63
2021/05/16 07:11:51;;;;;;;13.85;1.35;;;;;;;10.85;100.00;99938.81;5071785;28;20542;-63
2021/05/16 07:14:17;;;;;;;16.30;1.90;;;;;;;10.89;100.00;99934.44;5071640;28;20121;-63
2021/05/16 07:16:44;;;;;;;20.25;2.83;;;;;;;10.93;100.00;99930.09;5071493;28;20054;-62
2021/05/16 07:19:09;;;;;;;46.42;6.07;;;;;;;11.12;100.00;99936.75;5071490;28;20123;-64
2021/05/16 07:21:35;;;;;;;56.22;7.75;;;;;;;11.28;100.00;99944.97;5071325;28;20043;-65
2021/05/16 07:24:01;;;;;;;48.92;7.22;;;;;;;11.45;100.00;99938.22;5071582;28;20355;-64
2021/05/16 07:26:27;;;;;;;47.00;6.13;;;;;;;11.63;100.00;99941.53;5071476;28;20047;-63
2021/05/16 07:28:52;;;;;;;52.55;7.28;;;;;;;11.74;100.00;99934.97;5071574;28;20032;-63
2021/05/16 07:31:18;;;;;;;43.58;7.32;;;;;;;11.82;100.00;99919.97;5071391;28;20044;-63
2021/05/16 07:33:44;;;;;;;52.13;6.60;;;;;;;11.90;100.00;99933.09;5071033;28;20045;-62
2021/05/16 07:36:10;;;;;;;58.00;8.05;;;;;;;11.98;100.00;99936.13;5071127;28;20040;-65
2021/05/16 07:38:36;;;;;;;58.13;7.40;;;;;;;12.09;100.00;99923.25;5071109;28;20082;-65
2021/05/16 07:41:03;;;;;;;54.22;8.60;;;;;;;12.17;100.00;99924.63;5070945;28;20167;-64
2021/05/16 07:43:29;;;;;;;56.58;7.78;;;;;;;12.26;100.00;99926.50;5071031;28;20082;-63
2021/05/16 07:45:55;;;;;;;53.10;7.13;;;;;;;12.30;100.00;99929.50;5071024;28;20058;-62
2021/05/16 07:48:28;;;;;;;41.15;6.47;;;;;;;12.33;100.00;99918.03;5071028;28;20028;-64
2021/05/16 07:50:55;;;;;;;47.63;7.13;;;;;;;12.41;100.00;99911.16;5071206;28;20142;-64
2021/05/16 07:53:21;;;;;;;54.35;7.18;;;;;;;12.40;100.00;99909.53;5071049;28;20109;-63
2021/05/16 07:55:47;;;;;;;40.83;6.78;;;;;;;12.42;100.00;99910.88;5070809;28;20135;-64
2021/05/16 07:58:12;;;;;;;45.28;6.95;;;;;;;12.34;100.00;99906.81;5070977;28;20028;-62
2021/05/16 08:00:38;;;;;;;53.13;7.05;;;;;;;12.26;100.00;99901.88;5070913;28;20039;-66
2021/05/16 08:03:03;;;;;;;49.58;7.57;;;;;;;12.18;100.00;99913.41;5070725;28;20471;-63
2021/05/16 08:05:30;;;;;;;48.72;7.47;;;;;;;12.10;100.00;99902.97;5069938;28;20044;-63
2021/05/16 08:07:56;;;;;;;53.50;6.47;;;;;;;12.02;100.00;99903.56;5070900;28;20048;-62
2021/05/16 08:10:22;;;;;;;41.35;6.28;;;;;;;11.96;100.00;99899.16;5070773;28;20115;-63
2021/05/16 08:12:49;;;;;;;42.38;7.55;;;;;;;11.87;100.00;99901.63;5070733;28;20553;-63
2021/05/16 08:15:15;;;;;;;45.85;6.97;;;;;;;11.83;100.00;99899.72;5070655;28;20475;-63
2021/05/16 08:17:40;;;;;;;53.80;5.93;;;;;;;11.78;100.00;99904.09;5070695;28;20044;-63
2021/05/16 08:20:08;;;;;;;56.65;7.13;;;;;;;11.77;100.00;99909.78;5070735;28;20032;-62
2021/05/16 08:22:34;;;;;;;58.47;7.90;;;;;;;11.78;100.00;99906.81;5070678;28;20041;-63
2021/05/16 08:25:01;;;;;;;52.75;9.02;;;;;;;11.81;100.00;99904.66;5070667;28;20036;-63
2021/05/16 08:27:26;;;;;;;53.05;9.18;;;;;;;11.88;100.00;99907.94;5070531;28;20048;-64
2021/05/16 08:29:52;;;;;;;51.83;7.50;;;;;;;11.91;100.00;99890.97;5070525;28;20120;-63
2021/05/16 08:32:18;;;;;;;54.22;7.70;;;;;;;11.94;100.00;99890.41;5070610;28;20036;-63
2021/05/16 08:34:43;;;;;;;48.38;6.78;;;;;;;11.99;100.00;99893.16;5070372;28;20119;-65
2021/05/16 08:37:11;;;;;;;56.42;7.32;;;;;;;12.06;100.00;99899.16;5070639;28;20036;-64
2021/05/16 08:39:36;;;;;;;52.28;6.72;;;;;;;12.14;100.00;99875.88;5069389;28;20399;-63
2021/05/16 08:42:02;;;;;;;48.70;8.13;;;;;;;12.15;100.00;99886.56;5070511;28;20051;-63
2021/05/16 08:44:31;;;;;;;59.40;8.30;;;;;;;12.12;100.00;99887.09;5070320;28;20433;-62
2021/05/16 08:46:58;;;;;;;46.15;8.18;;;;;;;12.10;100.00;99861.09;5070336;28;20132;-61
2021/05/16 08:49:23;;;;;;;39.55;5.93;;;;;;;12.13;100.00;99875.06;5070585;28;20383;-62
2021/05/16 08:51:52;;;;;;;49.40;6.57;;;;;;;12.13;100.00;99864.09;5069111;28;20033;-62
2021/05/16 08:54:22;;;;;;;45.20;6.68;;;;;;;12.14;100.00;99863.00;5070417;28;20043;-63
2021/05/16 08:56:53;;;;;;;52.72;7.05;;;;;;;12.17;100.00;99862.47;5070535;28;20032;-62
2021/05/16 08:59:26;;;;;;;55.83;8.38;;;;;;;12.24;100.00;99862.19;5070353;28;20044;-62
2021/05/16 09:02:00;;;;;;;47.47;6.90;;;;;;;12.28;100.00;99853.13;5070300;28;20045;-62
2021/05/16 09:04:32;;;;;;;55.28;7.75;;;;;;;12.46;100.00;99848.16;5070237;28;20517;-64
2021/05/16 09:06:59;;;;;;;50.63;7.60;;;;;;;12.64;100.00;99844.78;5070071;28;20056;-64
2021/05/16 09:09:25;;;;;;;49.28;6.53;;;;;;;12.78;100.00;99829.41;5070245;28;20033;-62
2021/05/16 09:11:59;;;;;;;42.03;7.50;;;;;;;12.83;100.00;99832.09;5070210;28;20114;-64
2021/05/16 09:14:50;;;;;;;36.45;6.60;;;;;;;12.93;100.00;99826.59;5070347;28;20478;-62
2021/05/16 09:17:30;;;;;;;54.03;6.30;;;;;;;13.08;100.00;99833.09;5071772;28;20075;-62
2021/05/16 09:20:00;;;;;;;38.72;5.65;;;;;;;13.21;100.00;99827.00;5074257;28;20089;-64
2021/05/16 09:22:45;;;;;;;40.83;6.50;;;;;;;13.26;100.00;99824.22;5072436;28;20043;-64
2021/05/16 09:25:14;;;;;;;46.33;6.07;;;;;;;13.39;100.00;99829.06;5073770;28;20505;-63
2021/05/16 09:27:41;;;;;;;37.42;6.80;;;;;;;13.56;100.00;99829.50;5072374;28;20036;-64
2021/05/16 09:30:28;;;;;;;48.58;7.63;;;;;;;13.56;100.00;99813.03;5072463;28;20063;-63
2021/05/16 09:33:07;;;;;;;49.00;6.50;;;;;;;13.64;100.00;99813.50;5073652;28;20098;-64
2021/05/16 09:35:44;;;;;;;36.60;6.20;;;;;;;13.83;100.00;99833.63;5073530;28;20041;-63
2021/05/16 09:38:16;;;;;;;42.08;6.30;;;;;;;13.81;100.00;99819.38;5073521;28;20141;-63
2021/05/16 09:40:49;;;;;;;32.53;6.20;;;;;;;13.62;100.00;99813.78;5073468;28;20360;-62
2021/05/16 09:43:20;;;;;;;40.92;6.32;;;;;;;13.53;100.00;99831.97;5073291;28;20032;-63
2021/05/16 09:45:55;;;;;;;44.15;7.03;;;;;;;13.36;100.00;99826.88;5073361;28;20447;-63
2021/05/16 09:48:31;;;;;;;39.83;5.60;;;;;;;13.26;100.00;99827.78;5071854;28;20445;-64
2021/05/16 09:51:04;;;;;;;42.55;6.55;;;;;;;13.24;100.00;99823.69;5073182;28;20032;-64
2021/05/16 09:53:30;;;;;;;37.20;6.20;;;;;;;13.34;100.00;99826.34;5073537;28;20546;-63
2021/05/16 09:56:21;;;;;;;37.47;5.72;;;;;;;13.58;100.00;99810.81;5073244;28;20037;-64
2021/05/16 09:58:52;;;;;;;39.08;6.90;;;;;;;13.66;100.00;99814.03;5070206;28;20055;-62
2021/05/16 10:01:19;;;;;;;33.80;5.45;;;;;;;13.79;100.00;99816.13;5072952;28;20051;-64
2021/05/16 10:03:46;;;;;;;30.67;6.22;;;;;;;13.78;100.00;99825.47;5072909;28;20047;-63
2021/05/16 10:06:13;;;;;;;37.65;5.18;;;;;;;13.77;100.00;99804.63;5072912;28;20083;-62
2021/05/16 10:08:39;;;;;;;33.95;4.88;;;;;;;13.84;100.00;99808.66;5073163;28;20484;-62
2021/05/16 10:11:05;;;;;;;35.22;5.35;;;;;;;13.91;100.00;99808.31;5072752;28;20044;-62
2021/05/16 10:13:36;;;;;;;26.10;4.00;;;;;;;13.92;100.00;99815.44;5072760;28;20043;-65
2021/05/16 10:16:02;;;;;;;27.02;4.82;;;;;;;13.87;100.00;99807.25;5072623;28;20491;-64
2021/05/16 10:18:30;;;;;;;29.00;4.80;;;;;;;13.90;100.00;99827.84;5072659;28;20166;-63
2021/05/16 10:20:56;;;;;;;34.90;5.90;;;;;;;13.88;100.00;99806.13;5072786;28;20112;-63
2021/05/16 10:23:34;;;;;;;34.60;4.95;;;;;;;13.89;100.00;99799.56;5072472;28;20029;-64
2021/05/16 10:26:23;;;;;;;33.92;6.47;;;;;;;13.88;100.00;99792.41;5072538;28;20032;-62
2021/05/16 10:28:58;;;;;;;28.15;5.65;;;;;;;13.84;100.00;99808.66;5071941;28;20097;-63
2021/05/16 10:31:55;;;;;;;25.83;4.82;;;;;;;13.69;100.00;99799.72;5072413;28;20033;-64
2021/05/16 10:34:23;;;;;;;30.60;5.43;;;;;;;13.52;100.00;99791.91;5072370;28;20036;-64
2021/05/16 10:36:49;;;;;;;32.25;3.97;;;;;;;13.36;100.00;99807.69;5072314;28;20386;-62
2021/05/16 10:39:43;;;;;;;29.55;4.55;;;;;;;13.29;100.00;99809.94;5072389;28;20500;-62
2021/05/16 10:42:21;;;;;;;31.33;4.82;;;;;;;13.34;100.00;99809.06;5072272;28;20040;-63
2021/05/16 10:45:34;;;;;;;38.53;4.95;;;;;;;13.31;100.00;99804.97;5070910;28;20032;-64
2021/05/16 10:48:11;;;;;;;35.28;4.85;;;;;;;13.31;100.00;99804.16;5070308;28;20048;-62
2021/05/16 10:50:38;;;;;;;38.47;6.72;;;;;;;13.33;100.00;99785.50;5072107;28;20048;-62
2021/05/16 10:53:21;;;;;;;34.78;6.03;;;;;;;13.33;100.00;99802.78;5072393;28;20163;-63
2021/05/16 10:55:52;;;;;;;26.80;4.03;;;;;;;13.35;100.00;99797.00;5072090;28;20111;-63
2021/05/16 10:58:33;;;;;;;23.27;3.20;;;;;;;13.78;100.00;99792.53;5072128;28;20091;-64
2021/05/16 11:01:08;;;;;;;19.35;3.55;;;;;;;13.87;100.00;99801.75;5071900;28;20498;-64
2021/05/16 11:03:55;;;;;;;19.00;3.25;;;;;;;13.93;100.00;99789.63;5071951;28;20492;-62
2021/05/16 11:06:31;;;;;;;24.88;3.78;;;;;;;13.89;100.00;99777.59;5071558;28;20048;-62
2021/05/16 11:08:57;;;;;;;25.83;4.20;;;;;;;13.82;100.00;99768.88;5071748;28;20056;-62
2021/05/16 11:11:28;;;;;;;35.67;6.03;;;;;;;13.80;100.00;99768.34;5071646;28;20090;-62
2021/05/16 11:13:54;;;;;;;33.88;5.15;;;;;;;13.79;100.00;99777.69;5071637;28;20043;-64
2021/05/16 11:16:20;;;;;;;22.92;3.70;;;;;;;13.65;100.00;99782.22;5071630;28;20033;-63
2021/05/16 11:18:45;;;;;;;23.52;3.88;;;;;;;13.47;100.00;99781.00;5071574;28;20425;-62